KORD

Chicago O'Hare International Airport

Airport
ICAO code
KORD
IATA Code
ORD
Summary
ICAO Region
NAM
ICAO Territory
Location

Chicago,, Illinois

Serving
Chicago
Elevation
668 ft
Coordinates
41° 58' 52" N , 87° 54' 16" W
KCC
Airport BS
Bird Strike
Airport LOS
Parallel Runway Operation
Airport RE
Engineered Materials Arresting System
Metar
KORD 151651Z 18006KT 10SM BKN180 BKN250 27/14 A3009 RMK AO2 SLP187 T02670144

Description

Chicago O'Hare International Airport, also known as O'Hare Airport, O'Hare Field, or simply O'Hare, is a major airport located in the northwestern-most corner of Chicago, Illinois, United States, 16 nm northwest of the Chicago Loop.

Runways

Designator Length Width Surface Rops
18/36 1625 46 ASP Yes/Yes
04L/22R 2286 46 ASP Yes/Yes
09L/27R 2428 46 ASP Yes/Yes
04R/22L 2461 46 ASP Yes/Yes
14L/32R 3050 46 ASP Yes/Yes
09R/27L 3092 46 ASP Yes/Yes
10/28 3962 46 ASPH-CONC- Yes/Yes
14R/32L 3962 61 ASP Yes/Yes

SKYbrary Partners:

Safety knowledge contributed by: